sensor_id;sensor_type;location;lat;lon;timestamp;temperature;humidity
75769;DHT22;64379;48.888;8.330;2024-01-06T00:00:34;6.00;75.30
75769;DHT22;64379;48.888;8.330;2024-01-06T00:03:00;6.00;75.30
75769;DHT22;64379;48.888;8.330;2024-01-06T00:05:26;6.00;75.50
75769;DHT22;64379;48.888;8.330;2024-01-06T00:07:51;6.00;75.40
75769;DHT22;64379;48.888;8.330;2024-01-06T00:10:17;6.00;75.40
75769;DHT22;64379;48.888;8.330;2024-01-06T00:12:43;6.00;75.30
75769;DHT22;64379;48.888;8.330;2024-01-06T00:15:09;6.00;75.40
75769;DHT22;64379;48.888;8.330;2024-01-06T00:17:36;6.00;75.40
75769;DHT22;64379;48.888;8.330;2024-01-06T00:20:01;6.00;75.50
75769;DHT22;64379;48.888;8.330;2024-01-06T00:22:28;5.90;75.60
75769;DHT22;64379;48.888;8.330;2024-01-06T00:24:54;5.90;75.70
75769;DHT22;64379;48.888;8.330;2024-01-06T00:27:20;5.90;75.80
75769;DHT22;64379;48.888;8.330;2024-01-06T00:29:45;5.90;76.10
75769;DHT22;64379;48.888;8.330;2024-01-06T00:32:12;5.80;76.00
75769;DHT22;64379;48.888;8.330;2024-01-06T00:34:38;5.80;76.10
75769;DHT22;64379;48.888;8.330;2024-01-06T00:37:04;5.80;76.20
75769;DHT22;64379;48.888;8.330;2024-01-06T00:39:29;5.80;76.30
75769;DHT22;64379;48.888;8.330;2024-01-06T00:41:56;5.80;76.30
75769;DHT22;64379;48.888;8.330;2024-01-06T00:44:21;5.70;76.40
75769;DHT22;64379;48.888;8.330;2024-01-06T00:46:47;5.70;76.50
75769;DHT22;64379;48.888;8.330;2024-01-06T00:49:12;5.70;76.60
75769;DHT22;64379;48.888;8.330;2024-01-06T00:51:38;5.70;76.60
75769;DHT22;64379;48.888;8.330;2024-01-06T00:54:04;5.60;76.70
75769;DHT22;64379;48.888;8.330;2024-01-06T00:56:29;5.60;76.70
75769;DHT22;64379;48.888;8.330;2024-01-06T00:58:55;5.60;76.80
75769;DHT22;64379;48.888;8.330;2024-01-06T01:01:20;5.60;77.10
75769;DHT22;64379;48.888;8.330;2024-01-06T01:03:46;5.50;77.20
75769;DHT22;64379;48.888;8.330;2024-01-06T01:06:12;5.50;77.10
75769;DHT22;64379;48.888;8.330;2024-01-06T01:08:38;5.50;77.10
75769;DHT22;64379;48.888;8.330;2024-01-06T01:11:03;5.50;77.00
75769;DHT22;64379;48.888;8.330;2024-01-06T01:13:29;5.50;77.00
75769;DHT22;64379;48.888;8.330;2024-01-06T01:15:55;5.50;76.90
75769;DHT22;64379;48.888;8.330;2024-01-06T01:18:21;5.60;76.90
75769;DHT22;64379;48.888;8.330;2024-01-06T01:20:46;5.50;77.10
75769;DHT22;64379;48.888;8.330;2024-01-06T01:23:12;5.50;77.10
75769;DHT22;64379;48.888;8.330;2024-01-06T01:25:38;5.50;77.10
75769;DHT22;64379;48.888;8.330;2024-01-06T01:28:04;5.50;77.20
75769;DHT22;64379;48.888;8.330;2024-01-06T01:30:29;5.50;77.30
75769;DHT22;64379;48.888;8.330;2024-01-06T01:32:55;5.50;77.30
75769;DHT22;64379;48.888;8.330;2024-01-06T01:35:21;5.50;77.30
75769;DHT22;64379;48.888;8.330;2024-01-06T01:37:46;5.50;77.40
75769;DHT22;64379;48.888;8.330;2024-01-06T01:40:12;5.50;77.50
75769;DHT22;64379;48.888;8.330;2024-01-06T01:42:38;5.40;77.50
75769;DHT22;64379;48.888;8.330;2024-01-06T01:45:04;5.40;77.50
75769;DHT22;64379;48.888;8.330;2024-01-06T01:47:30;5.30;77.60
75769;DHT22;64379;48.888;8.330;2024-01-06T01:49:57;5.30;77.80
75769;DHT22;64379;48.888;8.330;2024-01-06T01:52:23;5.30;77.80
75769;DHT22;64379;48.888;8.330;2024-01-06T01:54:49;5.30;78.00
75769;DHT22;64379;48.888;8.330;2024-01-06T01:57:15;5.30;78.10
75769;DHT22;64379;48.888;8.330;2024-01-06T01:59:41;5.30;78.10
75769;DHT22;64379;48.888;8.330;2024-01-06T02:02:08;5.20;78.20
75769;DHT22;64379;48.888;8.330;2024-01-06T02:04:34;5.10;78.20
75769;DHT22;64379;48.888;8.330;2024-01-06T02:07:00;5.10;78.40
75769;DHT22;64379;48.888;8.330;2024-01-06T02:09:26;5.10;78.50
75769;DHT22;64379;48.888;8.330;2024-01-06T02:11:56;5.10;78.40
75769;DHT22;64379;48.888;8.330;2024-01-06T02:14:22;5.10;78.50
75769;DHT22;64379;48.888;8.330;2024-01-06T02:16:47;5.10;78.50
75769;DHT22;64379;48.888;8.330;2024-01-06T02:19:13;5.10;78.50
75769;DHT22;64379;48.888;8.330;2024-01-06T02:21:42;5.10;78.50
75769;DHT22;64379;48.888;8.330;2024-01-06T02:24:09;5.10;78.60
75769;DHT22;64379;48.888;8.330;2024-01-06T02:26:34;5.10;78.60
75769;DHT22;64379;48.888;8.330;2024-01-06T02:29:00;5.00;78.70
75769;DHT22;64379;48.888;8.330;2024-01-06T02:31:27;5.00;78.70
75769;DHT22;64379;48.888;8.330;2024-01-06T02:33:53;5.10;78.60
75769;DHT22;64379;48.888;8.330;2024-01-06T02:36:18;5.10;78.50
75769;DHT22;64379;48.888;8.330;2024-01-06T02:38:44;5.10;78.50
75769;DHT22;64379;48.888;8.330;2024-01-06T02:41:10;5.10;78.40
75769;DHT22;64379;48.888;8.330;2024-01-06T02:43:35;5.10;78.40
75769;DHT22;64379;48.888;8.330;2024-01-06T02:46:01;5.10;78.40
75769;DHT22;64379;48.888;8.330;2024-01-06T02:48:27;5.10;78.40
75769;DHT22;64379;48.888;8.330;2024-01-06T02:50:55;5.10;78.40
75769;DHT22;64379;48.888;8.330;2024-01-06T02:53:20;5.00;78.40
75769;DHT22;64379;48.888;8.330;2024-01-06T02:55:46;5.00;78.40
75769;DHT22;64379;48.888;8.330;2024-01-06T02:58:11;5.00;78.50
75769;DHT22;64379;48.888;8.330;2024-01-06T03:00:37;5.00;78.40
75769;DHT22;64379;48.888;8.330;2024-01-06T03:03:03;5.00;78.50
75769;DHT22;64379;48.888;8.330;2024-01-06T03:05:29;5.00;78.40
75769;DHT22;64379;48.888;8.330;2024-01-06T03:07:54;5.00;78.50
75769;DHT22;64379;48.888;8.330;2024-01-06T03:10:20;5.00;78.60
75769;DHT22;64379;48.888;8.330;2024-01-06T03:12:46;4.90;78.70
75769;DHT22;64379;48.888;8.330;2024-01-06T03:15:11;4.90;78.80
75769;DHT22;64379;48.888;8.330;2024-01-06T03:17:37;4.90;78.90
75769;DHT22;64379;48.888;8.330;2024-01-06T03:20:03;4.90;79.00
75769;DHT22;64379;48.888;8.330;2024-01-06T03:22:29;4.90;79.00
75769;DHT22;64379;48.888;8.330;2024-01-06T03:24:55;4.90;78.80
75769;DHT22;64379;48.888;8.330;2024-01-06T03:27:21;4.90;78.70
75769;DHT22;64379;48.888;8.330;2024-01-06T03:29:46;5.00;78.70
75769;DHT22;64379;48.888;8.330;2024-01-06T03:32:12;5.00;78.70
75769;DHT22;64379;48.888;8.330;2024-01-06T03:34:37;5.00;78.60
75769;DHT22;64379;48.888;8.330;2024-01-06T03:37:03;5.00;78.60
75769;DHT22;64379;48.888;8.330;2024-01-06T03:39:29;4.90;78.60
75769;DHT22;64379;48.888;8.330;2024-01-06T03:41:54;5.00;78.60
75769;DHT22;64379;48.888;8.330;2024-01-06T03:44:20;5.00;78.60
75769;DHT22;64379;48.888;8.330;2024-01-06T03:46:45;5.00;78.30
75769;DHT22;64379;48.888;8.330;2024-01-06T03:49:11;5.00;78.20
75769;DHT22;64379;48.888;8.330;2024-01-06T03:51:36;5.00;78.20
75769;DHT22;64379;48.888;8.330;2024-01-06T03:54:02;5.00;78.40
75769;DHT22;64379;48.888;8.330;2024-01-06T03:56:28;5.00;78.40
75769;DHT22;64379;48.888;8.330;2024-01-06T03:58:56;5.00;78.30
75769;DHT22;64379;48.888;8.330;2024-01-06T04:01:22;5.00;78.40
75769;DHT22;64379;48.888;8.330;2024-01-06T04:03:48;5.00;78.20
75769;DHT22;64379;48.888;8.330;2024-01-06T04:06:14;5.00;78.20
75769;DHT22;64379;48.888;8.330;2024-01-06T04:08:39;5.00;78.30
75769;DHT22;64379;48.888;8.330;2024-01-06T04:11:06;5.00;78.30
75769;DHT22;64379;48.888;8.330;2024-01-06T04:13:32;5.00;78.40
75769;DHT22;64379;48.888;8.330;2024-01-06T04:15:57;5.00;78.40
75769;DHT22;64379;48.888;8.330;2024-01-06T04:18:23;5.00;78.40
75769;DHT22;64379;48.888;8.330;2024-01-06T04:20:49;5.00;78.50
75769;DHT22;64379;48.888;8.330;2024-01-06T04:23:14;5.00;78.60
75769;DHT22;64379;48.888;8.330;2024-01-06T04:25:40;5.00;78.50
75769;DHT22;64379;48.888;8.330;2024-01-06T04:28:05;5.00;78.60
75769;DHT22;64379;48.888;8.330;2024-01-06T04:30:31;5.00;78.70
75769;DHT22;64379;48.888;8.330;2024-01-06T04:32:56;5.00;78.70
75769;DHT22;64379;48.888;8.330;2024-01-06T04:35:23;5.00;78.70
75769;DHT22;64379;48.888;8.330;2024-01-06T04:37:49;5.00;78.80
75769;DHT22;64379;48.888;8.330;2024-01-06T04:40:15;5.00;78.70
75769;DHT22;64379;48.888;8.330;2024-01-06T04:42:40;5.00;78.90
75769;DHT22;64379;48.888;8.330;2024-01-06T04:45:06;4.90;78.80
75769;DHT22;64379;48.888;8.330;2024-01-06T04:47:32;4.90;78.90
75769;DHT22;64379;48.888;8.330;2024-01-06T04:49:58;4.90;78.90
75769;DHT22;64379;48.888;8.330;2024-01-06T04:52:23;4.90;78.90
75769;DHT22;64379;48.888;8.330;2024-01-06T04:54:49;4.90;79.00
75769;DHT22;64379;48.888;8.330;2024-01-06T04:57:14;4.90;79.00
75769;DHT22;64379;48.888;8.330;2024-01-06T04:59:41;4.90;79.10
75769;DHT22;64379;48.888;8.330;2024-01-06T05:02:07;4.90;79.20
75769;DHT22;64379;48.888;8.330;2024-01-06T05:04:32;4.90;79.10
75769;DHT22;64379;48.888;8.330;2024-01-06T05:06:58;4.90;79.20
75769;DHT22;64379;48.888;8.330;2024-01-06T05:09:25;4.90;79.20
75769;DHT22;64379;48.888;8.330;2024-01-06T05:11:51;4.90;79.20
75769;DHT22;64379;48.888;8.330;2024-01-06T05:14:16;4.90;79.20
75769;DHT22;64379;48.888;8.330;2024-01-06T05:16:42;4.90;79.20
75769;DHT22;64379;48.888;8.330;2024-01-06T05:19:08;4.90;79.10
75769;DHT22;64379;48.888;8.330;2024-01-06T05:21:34;4.90;79.10
75769;DHT22;64379;48.888;8.330;2024-01-06T05:24:00;4.90;79.00
75769;DHT22;64379;48.888;8.330;2024-01-06T05:26:26;5.00;79.00
75769;DHT22;64379;48.888;8.330;2024-01-06T05:28:52;5.00;78.70
75769;DHT22;64379;48.888;8.330;2024-01-06T05:31:18;5.00;78.70
75769;DHT22;64379;48.888;8.330;2024-01-06T05:33:43;5.00;78.50
75769;DHT22;64379;48.888;8.330;2024-01-06T05:36:09;5.00;78.60
75769;DHT22;64379;48.888;8.330;2024-01-06T05:38:36;5.00;78.50
75769;DHT22;64379;48.888;8.330;2024-01-06T05:41:01;5.00;78.50
75769;DHT22;64379;48.888;8.330;2024-01-06T05:43:27;5.00;78.60
75769;DHT22;64379;48.888;8.330;2024-01-06T05:45:53;5.00;78.50
75769;DHT22;64379;48.888;8.330;2024-01-06T05:48:18;5.00;78.40
75769;DHT22;64379;48.888;8.330;2024-01-06T05:50:44;5.00;78.10
75769;DHT22;64379;48.888;8.330;2024-01-06T05:53:10;5.00;77.90
75769;DHT22;64379;48.888;8.330;2024-01-06T05:55:36;5.00;77.80
75769;DHT22;64379;48.888;8.330;2024-01-06T05:58:01;5.10;77.60
75769;DHT22;64379;48.888;8.330;2024-01-06T06:00:27;5.10;77.60
75769;DHT22;64379;48.888;8.330;2024-01-06T06:02:53;5.10;77.50
75769;DHT22;64379;48.888;8.330;2024-01-06T06:05:18;5.10;77.60
75769;DHT22;64379;48.888;8.330;2024-01-06T06:07:45;5.10;77.60
75769;DHT22;64379;48.888;8.330;2024-01-06T06:10:11;5.10;77.70
75769;DHT22;64379;48.888;8.330;2024-01-06T06:12:37;5.10;77.70
75769;DHT22;64379;48.888;8.330;2024-01-06T06:15:04;5.10;77.60
75769;DHT22;64379;48.888;8.330;2024-01-06T06:17:30;5.10;77.60
75769;DHT22;64379;48.888;8.330;2024-01-06T06:19:57;5.10;77.70
75769;DHT22;64379;48.888;8.330;2024-01-06T06:22:23;5.10;77.70
75769;DHT22;64379;48.888;8.330;2024-01-06T06:24:48;5.20;77.70
75769;DHT22;64379;48.888;8.330;2024-01-06T06:27:14;5.20;77.70
75769;DHT22;64379;48.888;8.330;2024-01-06T06:29:40;5.20;77.70
75769;DHT22;64379;48.888;8.330;2024-01-06T06:32:05;5.20;77.50
75769;DHT22;64379;48.888;8.330;2024-01-06T06:34:31;5.30;77.30
75769;DHT22;64379;48.888;8.330;2024-01-06T06:36:56;5.30;77.30
75769;DHT22;64379;48.888;8.330;2024-01-06T06:39:24;5.30;77.00
75769;DHT22;64379;48.888;8.330;2024-01-06T06:41:49;5.30;77.10
75769;DHT22;64379;48.888;8.330;2024-01-06T06:44:15;5.30;77.20
75769;DHT22;64379;48.888;8.330;2024-01-06T06:46:40;5.30;77.10
75769;DHT22;64379;48.888;8.330;2024-01-06T06:49:06;5.30;77.10
75769;DHT22;64379;48.888;8.330;2024-01-06T06:51:32;5.30;77.00
75769;DHT22;64379;48.888;8.330;2024-01-06T06:53:57;5.30;77.10
75769;DHT22;64379;48.888;8.330;2024-01-06T06:56:24;5.30;77.00
75769;DHT22;64379;48.888;8.330;2024-01-06T06:58:49;5.30;76.80
75769;DHT22;64379;48.888;8.330;2024-01-06T07:01:16;5.40;76.70
75769;DHT22;64379;48.888;8.330;2024-01-06T07:03:42;5.40;76.70
75769;DHT22;64379;48.888;8.330;2024-01-06T07:06:07;5.40;76.60
75769;DHT22;64379;48.888;8.330;2024-01-06T07:08:33;5.40;76.70
75769;DHT22;64379;48.888;8.330;2024-01-06T07:10:59;5.40;76.80
75769;DHT22;64379;48.888;8.330;2024-01-06T07:13:25;5.40;77.00
75769;DHT22;64379;48.888;8.330;2024-01-06T07:15:51;5.40;77.20
75769;DHT22;64379;48.888;8.330;2024-01-06T07:18:17;5.30;77.30
75769;DHT22;64379;48.888;8.330;2024-01-06T07:20:44;5.30;77.60
75769;DHT22;64379;48.888;8.330;2024-01-06T07:23:10;5.30;78.00
75769;DHT22;64379;48.888;8.330;2024-01-06T07:25:35;5.30;78.40
75769;DHT22;64379;48.888;8.330;2024-01-06T07:28:01;5.30;78.70
75769;DHT22;64379;48.888;8.330;2024-01-06T07:30:27;5.20;78.90
75769;DHT22;64379;48.888;8.330;2024-01-06T07:32:53;5.20;79.00
75769;DHT22;64379;48.888;8.330;2024-01-06T07:35:18;5.30;79.20
75769;DHT22;64379;48.888;8.330;2024-01-06T07:37:44;5.20;79.30
75769;DHT22;64379;48.888;8.330;2024-01-06T07:40:10;5.20;79.30
75769;DHT22;64379;48.888;8.330;2024-01-06T07:42:36;5.20;79.40
75769;DHT22;64379;48.888;8.330;2024-01-06T07:45:01;5.20;79.50
75769;DHT22;64379;48.888;8.330;2024-01-06T07:47:27;5.30;79.60
75769;DHT22;64379;48.888;8.330;2024-01-06T07:49:53;5.30;79.50
75769;DHT22;64379;48.888;8.330;2024-01-06T07:52:19;5.30;79.40
75769;DHT22;64379;48.888;8.330;2024-01-06T07:54:45;5.30;79.40
75769;DHT22;64379;48.888;8.330;2024-01-06T07:57:11;5.30;79.70
75769;DHT22;64379;48.888;8.330;2024-01-06T07:59:37;5.30;79.60
75769;DHT22;64379;48.888;8.330;2024-01-06T08:02:02;5.30;79.50
75769;DHT22;64379;48.888;8.330;2024-01-06T08:04:28;5.30;79.50
75769;DHT22;64379;48.888;8.330;2024-01-06T08:06:54;5.30;79.50
75769;DHT22;64379;48.888;8.330;2024-01-06T08:09:19;5.30;79.40
75769;DHT22;64379;48.888;8.330;2024-01-06T08:11:45;5.30;79.40
75769;DHT22;64379;48.888;8.330;2024-01-06T08:14:13;5.30;79.50
75769;DHT22;64379;48.888;8.330;2024-01-06T08:16:39;5.30;79.50
75769;DHT22;64379;48.888;8.330;2024-01-06T08:19:07;5.30;79.60
75769;DHT22;64379;48.888;8.330;2024-01-06T08:21:36;5.30;79.60
75769;DHT22;64379;48.888;8.330;2024-01-06T08:24:01;5.30;79.60
75769;DHT22;64379;48.888;8.330;2024-01-06T08:26:27;5.30;79.60
75769;DHT22;64379;48.888;8.330;2024-01-06T08:28:53;5.30;79.60
75769;DHT22;64379;48.888;8.330;2024-01-06T08:31:19;5.30;79.70
75769;DHT22;64379;48.888;8.330;2024-01-06T08:33:44;5.40;79.80
75769;DHT22;64379;48.888;8.330;2024-01-06T08:36:10;5.40;79.70
75769;DHT22;64379;48.888;8.330;2024-01-06T08:38:36;5.30;80.00
75769;DHT22;64379;48.888;8.330;2024-01-06T08:41:02;5.30;80.20
75769;DHT22;64379;48.888;8.330;2024-01-06T08:43:27;5.30;80.40
75769;DHT22;64379;48.888;8.330;2024-01-06T08:45:53;5.30;80.70
75769;DHT22;64379;48.888;8.330;2024-01-06T08:48:19;5.30;81.10
75769;DHT22;64379;48.888;8.330;2024-01-06T08:50:44;5.30;81.70
75769;DHT22;64379;48.888;8.330;2024-01-06T08:53:13;5.20;82.00
75769;DHT22;64379;48.888;8.330;2024-01-06T08:55:39;5.10;82.30
75769;DHT22;64379;48.888;8.330;2024-01-06T08:58:04;5.10;82.70
75769;DHT22;64379;48.888;8.330;2024-01-06T09:00:31;5.10;82.80
75769;DHT22;64379;48.888;8.330;2024-01-06T09:02:56;5.10;83.00
75769;DHT22;64379;48.888;8.330;2024-01-06T09:05:22;5.10;83.10
75769;DHT22;64379;48.888;8.330;2024-01-06T09:07:47;5.10;83.00
75769;DHT22;64379;48.888;8.330;2024-01-06T09:10:19;5.30;83.60
75769;DHT22;64379;48.888;8.330;2024-01-06T09:12:44;5.30;83.30
75769;DHT22;64379;48.888;8.330;2024-01-06T09:15:10;5.30;83.10
75769;DHT22;64379;48.888;8.330;2024-01-06T09:17:36;5.20;83.30
75769;DHT22;64379;48.888;8.330;2024-01-06T09:20:02;5.20;83.30
75769;DHT22;64379;48.888;8.330;2024-01-06T09:22:28;5.20;83.10
75769;DHT22;64379;48.888;8.330;2024-01-06T09:24:54;5.20;83.30
75769;DHT22;64379;48.888;8.330;2024-01-06T09:27:19;5.10;83.50
75769;DHT22;64379;48.888;8.330;2024-01-06T09:29:45;5.10;83.60
75769;DHT22;64379;48.888;8.330;2024-01-06T09:32:11;5.10;83.70
75769;DHT22;64379;48.888;8.330;2024-01-06T09:34:38;5.10;83.40
75769;DHT22;64379;48.888;8.330;2024-01-06T09:37:04;5.10;83.70
75769;DHT22;64379;48.888;8.330;2024-01-06T09:39:30;5.10;83.50
75769;DHT22;64379;48.888;8.330;2024-01-06T09:41:57;5.10;83.90
75769;DHT22;64379;48.888;8.330;2024-01-06T09:44:23;5.10;84.00
75769;DHT22;64379;48.888;8.330;2024-01-06T09:46:50;5.20;84.10
75769;DHT22;64379;48.888;8.330;2024-01-06T09:49:19;5.10;84.00
75769;DHT22;64379;48.888;8.330;2024-01-06T09:51:49;5.10;84.10
75769;DHT22;64379;48.888;8.330;2024-01-06T09:54:22;5.20;84.40
75769;DHT22;64379;48.888;8.330;2024-01-06T09:56:50;5.20;84.30
75769;DHT22;64379;48.888;8.330;2024-01-06T09:59:15;5.30;84.30
75769;DHT22;64379;48.888;8.330;2024-01-06T10:01:41;5.30;84.00
75769;DHT22;64379;48.888;8.330;2024-01-06T10:04:07;5.30;84.00
75769;DHT22;64379;48.888;8.330;2024-01-06T10:06:33;5.40;83.90
75769;DHT22;64379;48.888;8.330;2024-01-06T10:08:59;5.50;83.30
75769;DHT22;64379;48.888;8.330;2024-01-06T10:11:25;5.40;83.00
75769;DHT22;64379;48.888;8.330;2024-01-06T10:13:52;5.50;83.30
75769;DHT22;64379;48.888;8.330;2024-01-06T10:16:19;5.50;83.00
75769;DHT22;64379;48.888;8.330;2024-01-06T10:18:45;5.60;82.80
75769;DHT22;64379;48.888;8.330;2024-01-06T10:21:11;5.60;82.50
75769;DHT22;64379;48.888;8.330;2024-01-06T10:23:39;5.60;82.30
75769;DHT22;64379;48.888;8.330;2024-01-06T10:26:04;5.60;82.10
75769;DHT22;64379;48.888;8.330;2024-01-06T10:28:30;5.50;81.90
75769;DHT22;64379;48.888;8.330;2024-01-06T10:30:56;5.60;82.30
75769;DHT22;64379;48.888;8.330;2024-01-06T10:33:23;5.60;82.00
75769;DHT22;64379;48.888;8.330;2024-01-06T10:35:50;5.60;81.80
75769;DHT22;64379;48.888;8.330;2024-01-06T10:38:15;5.70;81.60
75769;DHT22;64379;48.888;8.330;2024-01-06T10:41:01;5.70;81.80
75769;DHT22;64379;48.888;8.330;2024-01-06T10:43:33;5.80;81.80
75769;DHT22;64379;48.888;8.330;2024-01-06T10:46:03;5.80;81.40
75769;DHT22;64379;48.888;8.330;2024-01-06T10:48:34;5.90;81.50
75769;DHT22;64379;48.888;8.330;2024-01-06T10:51:00;5.80;81.10
75769;DHT22;64379;48.888;8.330;2024-01-06T10:53:27;5.80;81.30
75769;DHT22;64379;48.888;8.330;2024-01-06T10:55:53;5.70;81.40
75769;DHT22;64379;48.888;8.330;2024-01-06T10:58:19;5.80;81.60
75769;DHT22;64379;48.888;8.330;2024-01-06T11:00:46;5.80;81.30
75769;DHT22;64379;48.888;8.330;2024-01-06T11:03:13;5.80;80.90
75769;DHT22;64379;48.888;8.330;2024-01-06T11:05:41;5.80;81.20
75769;DHT22;64379;48.888;8.330;2024-01-06T11:08:08;5.80;81.20
75769;DHT22;64379;48.888;8.330;2024-01-06T11:10:34;5.90;81.30
75769;DHT22;64379;48.888;8.330;2024-01-06T11:13:12;6.00;81.20
75769;DHT22;64379;48.888;8.330;2024-01-06T11:15:42;6.00;80.50
75769;DHT22;64379;48.888;8.330;2024-01-06T11:18:08;6.00;80.50
75769;DHT22;64379;48.888;8.330;2024-01-06T11:20:34;6.00;80.20
75769;DHT22;64379;48.888;8.330;2024-01-06T11:23:19;6.00;79.80
75769;DHT22;64379;48.888;8.330;2024-01-06T11:25:47;6.00;79.60
75769;DHT22;64379;48.888;8.330;2024-01-06T11:28:13;6.00;79.70
75769;DHT22;64379;48.888;8.330;2024-01-06T11:30:39;6.00;79.00
75769;DHT22;64379;48.888;8.330;2024-01-06T11:33:05;5.90;79.20
75769;DHT22;64379;48.888;8.330;2024-01-06T11:35:31;5.90;79.40
75769;DHT22;64379;48.888;8.330;2024-01-06T11:38:00;5.90;79.40
75769;DHT22;64379;48.888;8.330;2024-01-06T11:40:34;5.90;79.90
75769;DHT22;64379;48.888;8.330;2024-01-06T11:43:01;6.00;80.40
75769;DHT22;64379;48.888;8.330;2024-01-06T11:45:28;6.00;81.20
75769;DHT22;64379;48.888;8.330;2024-01-06T11:47:59;5.90;81.60
75769;DHT22;64379;48.888;8.330;2024-01-06T11:50:26;5.90;82.10
75769;DHT22;64379;48.888;8.330;2024-01-06T11:52:53;5.70;82.50
75769;DHT22;64379;48.888;8.330;2024-01-06T11:55:19;5.70;83.20
75769;DHT22;64379;48.888;8.330;2024-01-06T11:57:45;5.60;83.50
75769;DHT22;64379;48.888;8.330;2024-01-06T12:00:11;5.60;84.00
75769;DHT22;64379;48.888;8.330;2024-01-06T12:02:39;5.60;84.00
75769;DHT22;64379;48.888;8.330;2024-01-06T12:05:04;5.50;84.20
75769;DHT22;64379;48.888;8.330;2024-01-06T12:07:30;5.50;84.20
75769;DHT22;64379;48.888;8.330;2024-01-06T12:10:03;5.50;84.50
75769;DHT22;64379;48.888;8.330;2024-01-06T12:12:29;5.50;85.00
75769;DHT22;64379;48.888;8.330;2024-01-06T12:14:55;5.50;85.20
75769;DHT22;64379;48.888;8.330;2024-01-06T12:17:21;5.50;85.30
75769;DHT22;64379;48.888;8.330;2024-01-06T12:19:47;5.50;85.20
75769;DHT22;64379;48.888;8.330;2024-01-06T12:22:14;5.50;85.50
75769;DHT22;64379;48.888;8.330;2024-01-06T12:24:41;5.50;85.80
75769;DHT22;64379;48.888;8.330;2024-01-06T12:27:08;5.50;85.80
75769;DHT22;64379;48.888;8.330;2024-01-06T12:29:43;5.40;86.00
75769;DHT22;64379;48.888;8.330;2024-01-06T12:32:10;5.40;86.20
75769;DHT22;64379;48.888;8.330;2024-01-06T12:34:35;5.30;86.50
75769;DHT22;64379;48.888;8.330;2024-01-06T12:37:02;5.30;86.70
75769;DHT22;64379;48.888;8.330;2024-01-06T12:39:29;5.30;86.90
75769;DHT22;64379;48.888;8.330;2024-01-06T12:41:55;5.30;87.10
75769;DHT22;64379;48.888;8.330;2024-01-06T12:44:21;5.30;87.20
75769;DHT22;64379;48.888;8.330;2024-01-06T12:46:47;5.30;87.10
75769;DHT22;64379;48.888;8.330;2024-01-06T12:49:13;5.40;87.20
75769;DHT22;64379;48.888;8.330;2024-01-06T12:51:38;5.50;87.30
75769;DHT22;64379;48.888;8.330;2024-01-06T12:54:04;5.50;87.40
75769;DHT22;64379;48.888;8.330;2024-01-06T12:56:30;5.50;87.50
75769;DHT22;64379;48.888;8.330;2024-01-06T12:58:56;5.50;87.30
75769;DHT22;64379;48.888;8.330;2024-01-06T13:01:22;5.50;87.20
75769;DHT22;64379;48.888;8.330;2024-01-06T13:03:48;5.50;87.40
75769;DHT22;64379;48.888;8.330;2024-01-06T13:06:13;5.40;87.50
75769;DHT22;64379;48.888;8.330;2024-01-06T13:08:41;5.30;87.60
75769;DHT22;64379;48.888;8.330;2024-01-06T13:11:07;5.30;87.70
75769;DHT22;64379;48.888;8.330;2024-01-06T13:13:33;5.30;87.70
75769;DHT22;64379;48.888;8.330;2024-01-06T13:15:59;5.30;87.70
75769;DHT22;64379;48.888;8.330;2024-01-06T13:18:24;5.30;87.80
75769;DHT22;64379;48.888;8.330;2024-01-06T13:20:50;5.30;87.80
75769;DHT22;64379;48.888;8.330;2024-01-06T13:23:15;5.30;87.80
75769;DHT22;64379;48.888;8.330;2024-01-06T13:25:41;5.30;87.80
75769;DHT22;64379;48.888;8.330;2024-01-06T13:28:07;5.30;88.00
75769;DHT22;64379;48.888;8.330;2024-01-06T13:30:33;5.40;88.20
75769;DHT22;64379;48.888;8.330;2024-01-06T13:32:59;5.40;88.10
75769;DHT22;64379;48.888;8.330;2024-01-06T13:35:25;5.40;88.10
75769;DHT22;64379;48.888;8.330;2024-01-06T13:37:52;5.50;88.20
75769;DHT22;64379;48.888;8.330;2024-01-06T13:40:18;5.50;88.10
75769;DHT22;64379;48.888;8.330;2024-01-06T13:42:49;5.40;88.00
75769;DHT22;64379;48.888;8.330;2024-01-06T13:45:16;5.30;87.90
75769;DHT22;64379;48.888;8.330;2024-01-06T13:47:41;5.30;88.00
75769;DHT22;64379;48.888;8.330;2024-01-06T13:50:13;5.30;88.00
75769;DHT22;64379;48.888;8.330;2024-01-06T13:52:39;5.40;88.10
75769;DHT22;64379;48.888;8.330;2024-01-06T13:55:05;5.40;88.30
75769;DHT22;64379;48.888;8.330;2024-01-06T13:57:32;5.40;88.40
75769;DHT22;64379;48.888;8.330;2024-01-06T13:59:57;5.30;88.20
75769;DHT22;64379;48.888;8.330;2024-01-06T14:02:23;5.40;88.20
75769;DHT22;64379;48.888;8.330;2024-01-06T14:04:51;5.40;88.20
75769;DHT22;64379;48.888;8.330;2024-01-06T14:07:17;5.50;88.10
75769;DHT22;64379;48.888;8.330;2024-01-06T14:09:48;5.40;88.10
75769;DHT22;64379;48.888;8.330;2024-01-06T14:12:13;5.40;88.10
75769;DHT22;64379;48.888;8.330;2024-01-06T14:14:39;5.40;88.10
75769;DHT22;64379;48.888;8.330;2024-01-06T14:17:07;5.40;88.20
75769;DHT22;64379;48.888;8.330;2024-01-06T14:19:33;5.40;88.00
75769;DHT22;64379;48.888;8.330;2024-01-06T14:21:58;5.40;88.10
75769;DHT22;64379;48.888;8.330;2024-01-06T14:24:24;5.40;88.00
75769;DHT22;64379;48.888;8.330;2024-01-06T14:26:50;5.40;87.80
75769;DHT22;64379;48.888;8.330;2024-01-06T14:29:16;5.40;87.80
75769;DHT22;64379;48.888;8.330;2024-01-06T14:31:43;5.50;87.90
75769;DHT22;64379;48.888;8.330;2024-01-06T14:34:09;5.50;87.90
75769;DHT22;64379;48.888;8.330;2024-01-06T14:36:34;5.50;87.90
75769;DHT22;64379;48.888;8.330;2024-01-06T14:39:00;5.50;87.90
75769;DHT22;64379;48.888;8.330;2024-01-06T14:41:26;5.50;87.90
75769;DHT22;64379;48.888;8.330;2024-01-06T14:43:52;5.50;87.80
75769;DHT22;64379;48.888;8.330;2024-01-06T14:46:18;5.50;87.70
75769;DHT22;64379;48.888;8.330;2024-01-06T14:48:44;5.50;87.70
75769;DHT22;64379;48.888;8.330;2024-01-06T14:51:10;5.50;87.70
75769;DHT22;64379;48.888;8.330;2024-01-06T14:53:35;5.40;87.60
75769;DHT22;64379;48.888;8.330;2024-01-06T14:56:01;5.50;87.70
75769;DHT22;64379;48.888;8.330;2024-01-06T14:58:29;5.50;87.80
75769;DHT22;64379;48.888;8.330;2024-01-06T15:00:55;5.50;87.80
75769;DHT22;64379;48.888;8.330;2024-01-06T15:03:21;5.40;87.70
75769;DHT22;64379;48.888;8.330;2024-01-06T15:05:47;5.40;87.70
75769;DHT22;64379;48.888;8.330;2024-01-06T15:08:12;5.40;87.70
75769;DHT22;64379;48.888;8.330;2024-01-06T15:10:38;5.40;87.70
75769;DHT22;64379;48.888;8.330;2024-01-06T15:13:04;5.40;87.60
75769;DHT22;64379;48.888;8.330;2024-01-06T15:15:30;5.50;87.70
75769;DHT22;64379;48.888;8.330;2024-01-06T15:17:55;5.40;87.70
75769;DHT22;64379;48.888;8.330;2024-01-06T15:20:21;5.40;87.60
75769;DHT22;64379;48.888;8.330;2024-01-06T15:22:48;5.40;87.50
75769;DHT22;64379;48.888;8.330;2024-01-06T15:25:14;5.40;87.60
75769;DHT22;64379;48.888;8.330;2024-01-06T15:27:39;5.40;87.70
75769;DHT22;64379;48.888;8.330;2024-01-06T15:30:05;5.40;87.60
75769;DHT22;64379;48.888;8.330;2024-01-06T15:32:37;5.50;87.60
75769;DHT22;64379;48.888;8.330;2024-01-06T15:35:04;5.50;87.50
75769;DHT22;64379;48.888;8.330;2024-01-06T15:37:30;5.50;87.40